createdAt,value
2023-07-11T00:00:21.866Z,23.55
2023-07-11T00:01:24.532Z,23.53
2023-07-11T00:02:27.465Z,23.50
2023-07-11T00:03:30.106Z,23.48
2023-07-11T00:04:35.364Z,23.46
2023-07-11T00:05:37.979Z,23.44
2023-07-11T00:06:40.584Z,23.42
2023-07-11T00:07:44.005Z,23.41
2023-07-11T00:08:46.616Z,23.39
2023-07-11T00:09:49.788Z,23.36
2023-07-11T00:10:52.354Z,23.35
2023-07-11T00:11:55.020Z,23.33
2023-07-11T00:12:57.687Z,23.32
2023-07-11T00:14:01.059Z,23.29
2023-07-11T00:15:05.289Z,23.26
2023-07-11T00:16:10.755Z,23.24
2023-07-11T00:17:13.993Z,23.22
2023-07-11T00:18:16.599Z,23.20
2023-07-11T00:19:21.219Z,23.19
2023-07-11T00:20:24.033Z,23.17
2023-07-11T00:21:26.668Z,23.16
2023-07-11T00:22:30.713Z,23.14
2023-07-11T00:23:33.759Z,23.13
2023-07-11T00:24:36.367Z,23.11
2023-07-11T00:25:39.036Z,23.09
2023-07-11T00:26:41.612Z,23.08
2023-07-11T00:27:44.216Z,23.06
2023-07-11T00:28:46.821Z,23.04
2023-07-11T00:29:49.453Z,23.01
2023-07-11T00:30:52.526Z,22.99
2023-07-11T00:31:55.132Z,22.97
2023-07-11T00:32:57.810Z,22.95
2023-07-11T00:34:00.456Z,22.93
2023-07-11T00:35:03.192Z,22.91
2023-07-11T00:36:06.227Z,22.90
2023-07-11T00:37:09.153Z,22.88
2023-07-11T00:38:11.750Z,22.86
2023-07-11T00:39:16.721Z,22.84
2023-07-11T00:40:19.338Z,22.82
2023-07-11T00:41:21.971Z,22.80
2023-07-11T00:42:24.570Z,22.78
2023-07-11T00:43:27.225Z,22.76
2023-07-11T00:44:30.230Z,22.74
2023-07-11T00:45:51.267Z,22.71
2023-07-11T00:46:54.033Z,22.67
2023-07-11T00:47:56.683Z,22.65
2023-07-11T00:49:04.231Z,22.64
2023-07-11T00:50:09.550Z,22.62
2023-07-11T00:51:14.355Z,22.60
2023-07-11T00:52:18.474Z,22.60
2023-07-11T00:53:21.882Z,22.58
2023-07-11T00:54:32.701Z,22.57
2023-07-11T00:55:35.304Z,22.56
2023-07-11T00:56:45.059Z,22.55
2023-07-11T00:57:47.780Z,22.54
2023-07-11T00:58:51.330Z,22.53
2023-07-11T00:59:54.415Z,22.52
2023-07-11T01:00:57.368Z,22.51
2023-07-11T01:02:13.287Z,22.50
2023-07-11T01:03:16.012Z,22.48
2023-07-11T01:04:20.725Z,22.47
2023-07-11T01:05:23.383Z,22.46
2023-07-11T01:06:28.801Z,22.45
2023-07-11T01:07:34.784Z,22.44
2023-07-11T01:08:37.389Z,22.43
2023-07-11T01:09:40.004Z,22.42
2023-07-11T01:10:42.674Z,22.40
2023-07-11T01:11:58.292Z,22.39
2023-07-11T01:13:02.981Z,22.38
2023-07-11T01:14:05.611Z,22.36
2023-07-11T01:15:08.937Z,22.35
2023-07-11T01:16:11.673Z,22.33
2023-07-11T01:17:35.086Z,22.32
2023-07-11T01:18:38.093Z,22.30
2023-07-11T01:19:40.728Z,22.28
2023-07-11T01:20:43.304Z,22.26
2023-07-11T01:21:46.360Z,22.25
2023-07-11T01:22:50.525Z,22.23
2023-07-11T01:23:53.222Z,22.22
2023-07-11T01:24:57.610Z,22.21
2023-07-11T01:26:06.137Z,22.20
2023-07-11T01:27:09.304Z,22.19
2023-07-11T01:28:14.326Z,22.17
2023-07-11T01:29:17.035Z,22.16
2023-07-11T01:30:26.259Z,22.15
2023-07-11T01:31:29.006Z,22.13
2023-07-11T01:32:31.946Z,22.12
2023-07-11T01:33:35.610Z,22.11
2023-07-11T01:34:38.197Z,22.09
2023-07-11T01:35:40.811Z,22.08
2023-07-11T01:36:43.423Z,22.06
2023-07-11T01:37:46.072Z,22.05
2023-07-11T01:38:48.656Z,22.03
2023-07-11T01:39:51.291Z,22.02
2023-07-11T01:40:53.947Z,22.01
2023-07-11T01:41:56.608Z,21.99
2023-07-11T01:42:59.449Z,21.98
2023-07-11T01:44:02.701Z,21.97
2023-07-11T01:45:05.860Z,21.96
2023-07-11T01:46:08.698Z,21.93
2023-07-11T01:47:11.839Z,21.92
2023-07-11T01:48:14.510Z,21.90
2023-07-11T01:49:17.175Z,21.89
2023-07-11T01:50:19.773Z,21.87
2023-07-11T01:51:22.402Z,21.85
2023-07-11T01:52:25.158Z,21.84
2023-07-11T01:53:27.813Z,21.83
2023-07-11T01:54:30.459Z,21.82
2023-07-11T01:55:33.077Z,21.80
2023-07-11T01:56:35.706Z,21.79
2023-07-11T01:57:38.352Z,21.78
2023-07-11T01:58:41.052Z,21.77
2023-07-11T01:59:44.112Z,21.76
2023-07-11T02:00:46.736Z,21.75
2023-07-11T02:01:49.496Z,21.73
2023-07-11T02:02:52.638Z,21.72
2023-07-11T02:03:55.926Z,21.70
2023-07-11T02:04:58.690Z,21.69
2023-07-11T02:06:01.254Z,21.68
2023-07-11T02:07:05.104Z,21.67
2023-07-11T02:08:07.758Z,21.65
2023-07-11T02:09:10.363Z,21.64
2023-07-11T02:10:12.969Z,21.62
2023-07-11T02:11:15.644Z,21.61
2023-07-11T02:12:18.221Z,21.59
2023-07-11T02:13:20.990Z,21.58
2023-07-11T02:14:23.798Z,21.57
2023-07-11T02:15:26.419Z,21.56
2023-07-11T02:16:29.370Z,21.54
2023-07-11T02:17:33.398Z,21.53
2023-07-11T02:18:36.173Z,21.51
2023-07-11T02:19:38.797Z,21.49
2023-07-11T02:20:43.002Z,21.48
2023-07-11T02:21:45.971Z,21.46
2023-07-11T02:22:48.604Z,21.44
2023-07-11T02:23:51.416Z,21.42
2023-07-11T02:24:54.096Z,21.41
2023-07-11T02:25:56.714Z,21.39
2023-07-11T02:26:59.375Z,21.38
2023-07-11T02:28:02.026Z,21.36
2023-07-11T02:29:05.472Z,21.35
2023-07-11T02:30:08.492Z,21.33
2023-07-11T02:31:11.133Z,21.32
2023-07-11T02:32:13.802Z,21.31
2023-07-11T02:33:16.434Z,21.30
2023-07-11T02:34:19.161Z,21.28
2023-07-11T02:35:21.776Z,21.27
2023-07-11T02:36:24.374Z,21.27
2023-07-11T02:37:26.960Z,21.26
2023-07-11T02:38:29.555Z,21.25
2023-07-11T02:39:32.145Z,21.24
2023-07-11T02:40:34.780Z,21.23
2023-07-11T02:41:37.414Z,21.22
2023-07-11T02:42:40.042Z,21.20
2023-07-11T02:43:42.637Z,21.19
2023-07-11T02:44:45.221Z,21.19
2023-07-11T02:45:49.225Z,21.17
2023-07-11T02:46:51.871Z,21.16
2023-07-11T02:47:54.563Z,21.15
2023-07-11T02:48:57.561Z,21.14
2023-07-11T02:50:00.227Z,21.12
2023-07-11T02:51:02.904Z,21.11
2023-07-11T02:52:09.533Z,21.10
2023-07-11T02:53:12.125Z,21.09
2023-07-11T02:54:15.368Z,21.08
2023-07-11T02:55:17.995Z,21.06
2023-07-11T02:56:21.382Z,21.05
2023-07-11T02:57:23.971Z,21.04
2023-07-11T02:58:26.626Z,21.03
2023-07-11T02:59:29.191Z,21.02
2023-07-11T03:00:31.939Z,21.01
2023-07-11T03:01:35.433Z,21.00
2023-07-11T03:02:38.080Z,20.99
2023-07-11T03:03:40.901Z,20.98
2023-07-11T03:04:43.555Z,20.96
2023-07-11T03:05:47.925Z,20.95
2023-07-11T03:06:50.573Z,20.93
2023-07-11T03:07:53.185Z,20.92
2023-07-11T03:08:55.773Z,20.92
2023-07-11T03:09:58.358Z,20.91
2023-07-11T03:11:01.844Z,20.90
2023-07-11T03:12:04.759Z,20.89
2023-07-11T03:13:07.447Z,20.88
2023-07-11T03:14:10.118Z,20.88
2023-07-11T03:15:12.764Z,20.87
2023-07-11T03:16:15.480Z,20.86
2023-07-11T03:17:18.861Z,20.85
2023-07-11T03:18:21.579Z,20.85
2023-07-11T03:19:24.182Z,20.84
2023-07-11T03:20:26.942Z,20.84
2023-07-11T03:21:29.541Z,20.83
2023-07-11T03:22:32.217Z,20.82
2023-07-11T03:23:34.876Z,20.82
2023-07-11T03:24:37.490Z,20.82
2023-07-11T03:25:40.242Z,20.81
2023-07-11T03:26:45.109Z,20.81
2023-07-11T03:27:47.774Z,20.80
2023-07-11T03:28:50.531Z,20.80
2023-07-11T03:29:53.128Z,20.80
2023-07-11T03:30:55.763Z,20.80
2023-07-11T03:31:58.419Z,20.80
2023-07-11T03:33:01.272Z,20.80
2023-07-11T03:34:03.894Z,20.80
2023-07-11T03:35:06.669Z,20.80
2023-07-11T03:36:09.537Z,20.81
2023-07-11T03:37:12.644Z,20.81
2023-07-11T03:38:15.336Z,20.82
2023-07-11T03:39:18.144Z,20.83
2023-07-11T03:40:20.792Z,20.84
2023-07-11T03:41:23.413Z,20.86
2023-07-11T03:42:26.042Z,20.87
2023-07-11T03:43:28.689Z,20.88
2023-07-11T03:44:31.313Z,20.89
2023-07-11T03:45:33.944Z,20.91
2023-07-11T03:46:36.622Z,20.93
2023-07-11T03:47:39.328Z,20.95
2023-07-11T03:48:42.004Z,20.98
2023-07-11T03:49:44.618Z,21.00
2023-07-11T03:50:47.202Z,21.02
2023-07-11T03:51:49.836Z,21.05
2023-07-11T03:52:52.414Z,21.09
2023-07-11T03:53:55.042Z,21.14
2023-07-11T03:54:57.669Z,21.18
2023-07-11T03:56:00.297Z,21.22
2023-07-11T03:57:03.561Z,21.26
2023-07-11T03:58:06.164Z,21.29
2023-07-11T03:59:09.099Z,21.32
2023-07-11T04:00:12.283Z,21.36
2023-07-11T04:01:15.013Z,21.41
2023-07-11T04:02:17.673Z,21.47
2023-07-11T04:03:20.444Z,21.52
2023-07-11T04:04:23.175Z,21.58
2023-07-11T04:05:25.800Z,21.63
2023-07-11T04:06:28.434Z,21.69
2023-07-11T04:07:31.008Z,21.74
2023-07-11T04:08:33.634Z,21.79
2023-07-11T04:09:36.718Z,21.86
2023-07-11T04:10:39.972Z,21.93
2023-07-11T04:11:42.723Z,22.00
2023-07-11T04:12:45.443Z,22.05
2023-07-11T04:13:48.044Z,22.11
2023-07-11T04:14:50.743Z,22.17
2023-07-11T04:15:53.386Z,22.23
2023-07-11T04:16:56.107Z,22.31
2023-07-11T04:17:58.825Z,22.40
2023-07-11T04:19:01.465Z,22.48
2023-07-11T04:20:04.330Z,22.55
2023-07-11T04:21:06.923Z,22.62
2023-07-11T04:22:09.614Z,22.69
2023-07-11T04:23:12.258Z,22.75
2023-07-11T04:24:14.876Z,22.79
2023-07-11T04:25:17.495Z,22.84
2023-07-11T04:26:20.115Z,22.88
2023-07-11T04:27:22.749Z,22.92
2023-07-11T04:28:25.521Z,22.97
2023-07-11T04:29:28.103Z,23.01
2023-07-11T04:30:30.758Z,23.06
2023-07-11T04:31:33.596Z,23.11
2023-07-11T04:32:37.064Z,23.16
2023-07-11T04:33:39.731Z,23.23
2023-07-11T04:34:42.354Z,23.29
2023-07-11T04:35:45.317Z,23.36
2023-07-11T04:36:47.936Z,23.41
2023-07-11T04:37:50.621Z,23.47
2023-07-11T04:38:54.222Z,23.54
2023-07-11T04:39:56.994Z,23.63
2023-07-11T04:41:03.615Z,23.68
2023-07-11T04:42:06.333Z,23.72
2023-07-11T04:43:08.962Z,23.77
2023-07-11T04:44:11.604Z,23.82
2023-07-11T04:45:14.255Z,23.87
2023-07-11T04:46:17.341Z,23.93
2023-07-11T04:47:20.013Z,24.00
2023-07-11T04:48:22.586Z,24.06
2023-07-11T04:49:25.186Z,24.13
2023-07-11T04:50:27.763Z,24.20
2023-07-11T04:51:31.412Z,24.28
2023-07-11T04:52:33.996Z,24.36
2023-07-11T04:53:36.767Z,24.44
2023-07-11T04:54:39.395Z,24.50
2023-07-11T04:55:42.139Z,24.56
2023-07-11T04:56:44.821Z,24.63
2023-07-11T04:57:47.502Z,24.69
2023-07-11T04:58:50.145Z,24.75
2023-07-11T04:59:52.764Z,24.82
2023-07-11T05:01:01.647Z,24.88
2023-07-11T05:02:04.457Z,24.93
2023-07-11T05:03:07.141Z,24.98
2023-07-11T05:04:09.977Z,25.01
2023-07-11T05:05:12.692Z,25.03
2023-07-11T05:06:15.290Z,25.06
2023-07-11T05:07:18.012Z,25.08
2023-07-11T05:08:20.612Z,25.10
2023-07-11T05:09:23.247Z,25.11
2023-07-11T05:10:25.866Z,25.13
2023-07-11T05:11:28.439Z,25.15
2023-07-11T05:12:31.093Z,25.17
2023-07-11T05:13:35.365Z,25.19
2023-07-11T05:14:38.961Z,25.21
2023-07-11T05:15:41.565Z,25.25
2023-07-11T05:16:44.268Z,25.28
2023-07-11T05:17:46.975Z,25.33
2023-07-11T05:18:50.218Z,25.38
2023-07-11T05:19:52.882Z,25.45
2023-07-11T05:20:57.002Z,25.53
2023-07-11T05:21:59.633Z,25.62
2023-07-11T05:23:02.292Z,25.74
2023-07-11T05:24:05.250Z,25.85
2023-07-11T05:25:10.449Z,25.93
2023-07-11T05:26:13.689Z,26.02
2023-07-11T05:27:16.285Z,26.11
2023-07-11T05:28:19.389Z,26.18
2023-07-11T05:29:22.030Z,26.26
2023-07-11T05:30:24.628Z,26.34
2023-07-11T05:31:27.257Z,26.42
2023-07-11T05:32:29.938Z,26.50
2023-07-11T05:33:33.149Z,26.60
2023-07-11T05:34:37.211Z,26.73
2023-07-11T05:36:10.830Z,26.82
2023-07-11T05:37:14.471Z,27.01
2023-07-11T05:38:17.071Z,27.10
2023-07-11T05:39:19.763Z,27.20
2023-07-11T05:40:24.282Z,27.36
2023-07-11T05:41:28.170Z,27.50
2023-07-11T05:42:30.755Z,27.59
2023-07-11T05:43:33.385Z,27.66
2023-07-11T05:44:36.034Z,27.73
2023-07-11T05:45:38.691Z,27.80
2023-07-11T05:46:42.767Z,27.87
2023-07-11T05:47:47.237Z,27.92
2023-07-11T05:48:50.322Z,28.02
2023-07-11T05:49:52.932Z,28.11
2023-07-11T05:50:59.905Z,28.19
2023-07-11T05:52:02.450Z,28.29
2023-07-11T05:53:05.018Z,28.36
2023-07-11T05:54:07.636Z,28.42
2023-07-11T05:55:10.372Z,28.46
2023-07-11T05:56:13.956Z,28.52
2023-07-11T05:57:16.566Z,28.60
2023-07-11T05:58:19.646Z,28.67
2023-07-11T05:59:22.222Z,28.77
2023-07-11T06:00:24.921Z,28.86
2023-07-11T06:01:30.072Z,28.95
2023-07-11T06:02:33.521Z,29.04
2023-07-11T06:03:36.137Z,29.15
2023-07-11T06:04:38.818Z,29.29
2023-07-11T06:05:42.302Z,29.42
2023-07-11T06:06:45.204Z,29.50
2023-07-11T06:07:48.602Z,29.60
2023-07-11T06:08:51.740Z,29.67
2023-07-11T06:09:55.945Z,29.72
2023-07-11T06:11:01.929Z,29.80
2023-07-11T06:12:04.855Z,29.90
2023-07-11T06:13:07.454Z,29.99
2023-07-11T06:14:11.083Z,30.06
2023-07-11T06:15:13.809Z,30.15
2023-07-11T06:16:18.586Z,30.22
2023-07-11T06:17:21.326Z,30.30
2023-07-11T06:18:23.944Z,30.35
2023-07-11T06:19:26.558Z,30.38
2023-07-11T06:20:29.303Z,30.44
2023-07-11T06:21:32.491Z,30.50
2023-07-11T06:22:35.222Z,30.54
2023-07-11T06:23:38.045Z,30.57
2023-07-11T06:24:41.945Z,30.61
2023-07-11T06:25:44.711Z,30.63
2023-07-11T06:26:47.368Z,30.64
2023-07-11T06:27:50.033Z,30.67
2023-07-11T06:28:52.708Z,30.69
2023-07-11T06:29:55.279Z,30.66
2023-07-11T06:31:00.050Z,30.60
2023-07-11T06:32:02.777Z,30.56
2023-07-11T06:33:05.479Z,30.52
2023-07-11T06:34:08.152Z,30.48
2023-07-11T06:35:10.814Z,30.40
2023-07-11T06:36:13.577Z,30.29
2023-07-11T06:37:16.231Z,30.16
2023-07-11T06:38:19.622Z,30.05
2023-07-11T06:39:22.311Z,30.01
2023-07-11T06:40:24.954Z,29.93
2023-07-11T06:41:29.699Z,29.84
2023-07-11T06:42:32.298Z,29.77
2023-07-11T06:43:35.170Z,29.72
2023-07-11T06:44:37.811Z,29.68
2023-07-11T06:45:40.433Z,29.60
2023-07-11T06:46:43.054Z,29.47
2023-07-11T06:47:45.723Z,29.41
2023-07-11T06:48:48.342Z,29.34
2023-07-11T06:49:51.118Z,29.30
2023-07-11T06:51:01.609Z,29.29
2023-07-11T06:52:04.473Z,29.28
2023-07-11T06:53:07.102Z,29.25
2023-07-11T06:54:09.690Z,29.21
2023-07-11T06:55:13.636Z,29.19
2023-07-11T06:56:16.276Z,29.18
2023-07-11T06:57:19.761Z,29.17
2023-07-11T06:58:23.145Z,29.15
2023-07-11T06:59:25.761Z,29.15
2023-07-11T07:00:28.385Z,29.14
2023-07-11T07:01:38.149Z,29.14
2023-07-11T07:02:41.721Z,29.14
2023-07-11T07:03:44.555Z,29.15
2023-07-11T07:04:47.202Z,29.15
2023-07-11T07:05:54.973Z,29.16
2023-07-11T07:06:57.641Z,29.19
2023-07-11T07:08:12.657Z,29.22
2023-07-11T07:09:16.516Z,29.24
2023-07-11T07:10:19.178Z,29.24
2023-07-11T07:11:21.825Z,29.25
2023-07-11T07:12:25.158Z,29.26
2023-07-11T07:13:28.270Z,29.26
2023-07-11T07:14:31.000Z,29.26
2023-07-11T07:15:33.574Z,29.25
2023-07-11T07:16:38.149Z,29.26
2023-07-11T07:17:40.829Z,29.28
2023-07-11T07:18:44.644Z,29.30
2023-07-11T07:19:47.243Z,29.32
2023-07-11T07:20:58.147Z,29.32
2023-07-11T07:22:01.449Z,29.33
2023-07-11T07:23:05.955Z,29.34
2023-07-11T07:24:08.822Z,29.39
2023-07-11T07:25:24.375Z,29.43
2023-07-11T07:26:27.914Z,29.46
2023-07-11T07:27:30.482Z,29.47
2023-07-11T07:28:35.394Z,29.51
2023-07-11T07:29:40.234Z,29.54
2023-07-11T07:30:50.226Z,29.58
2023-07-11T07:31:52.852Z,29.59
2023-07-11T07:32:55.788Z,29.61
2023-07-11T07:33:58.446Z,29.64
2023-07-11T07:35:01.076Z,29.66
2023-07-11T07:36:06.133Z,29.67
2023-07-11T07:37:08.697Z,29.68
2023-07-11T07:38:11.884Z,29.72
2023-07-11T07:39:14.463Z,29.76
2023-07-11T07:40:18.143Z,29.77
2023-07-11T07:41:21.385Z,29.78
2023-07-11T07:42:24.012Z,29.79
2023-07-11T07:43:28.291Z,29.80
2023-07-11T07:44:30.869Z,29.82
2023-07-11T07:45:33.486Z,29.83
2023-07-11T07:46:36.153Z,29.84
2023-07-11T07:47:38.897Z,29.85
2023-07-11T07:48:41.836Z,29.88
2023-07-11T07:49:53.826Z,29.93
2023-07-11T07:51:05.929Z,29.98
2023-07-11T07:52:08.776Z,30.03
2023-07-11T07:53:13.209Z,30.08
2023-07-11T07:54:15.810Z,30.16
2023-07-11T07:55:18.472Z,30.22
2023-07-11T07:56:23.147Z,30.26
2023-07-11T07:57:26.912Z,30.29
2023-07-11T07:58:41.915Z,30.31
2023-07-11T07:59:45.127Z,30.35
2023-07-11T08:00:47.687Z,30.39
2023-07-11T08:01:50.306Z,30.42
2023-07-11T08:02:53.075Z,30.44
2023-07-11T08:03:55.846Z,30.47
2023-07-11T08:04:59.610Z,30.48
2023-07-11T08:06:14.592Z,30.49
2023-07-11T08:07:18.951Z,30.52
2023-07-11T08:08:22.018Z,30.56
2023-07-11T08:09:26.792Z,30.59
2023-07-11T08:10:29.332Z,30.60
2023-07-11T08:11:32.028Z,30.61
2023-07-11T08:12:34.739Z,30.62
2023-07-11T08:13:49.208Z,30.63
2023-07-11T08:14:59.929Z,30.63
2023-07-11T08:16:09.181Z,30.63
2023-07-11T08:17:21.910Z,30.62
2023-07-11T08:18:24.596Z,30.62
2023-07-11T08:19:27.200Z,30.62
2023-07-11T08:20:29.804Z,30.62
2023-07-11T08:21:32.487Z,30.62
2023-07-11T08:22:35.206Z,30.61
2023-07-11T08:23:37.820Z,30.58
2023-07-11T08:24:40.450Z,30.58
2023-07-11T08:25:43.066Z,30.56
2023-07-11T08:26:45.625Z,30.55
2023-07-11T08:27:48.226Z,30.55
2023-07-11T08:28:52.369Z,30.54
2023-07-11T08:29:55.012Z,30.53
2023-07-11T08:30:57.659Z,30.52
2023-07-11T08:32:00.227Z,30.53
2023-07-11T08:33:03.515Z,30.57
2023-07-11T08:34:06.346Z,30.60
2023-07-11T08:35:09.368Z,30.62
2023-07-11T08:36:11.936Z,30.62
2023-07-11T08:37:14.924Z,30.60
2023-07-11T08:38:17.554Z,30.58
2023-07-11T08:39:20.116Z,30.58
2023-07-11T08:40:37.980Z,30.59
2023-07-11T08:41:53.811Z,30.58
2023-07-11T08:42:57.110Z,30.58
2023-07-11T08:44:06.336Z,30.59
2023-07-11T08:45:31.279Z,30.60
2023-07-11T08:46:44.114Z,30.60
2023-07-11T08:48:07.670Z,30.60
2023-07-11T08:49:18.585Z,30.62
2023-07-11T08:50:27.632Z,30.64
2023-07-11T08:51:38.348Z,30.67
2023-07-11T08:52:43.081Z,30.70
2023-07-11T08:53:52.510Z,30.72
2023-07-11T08:55:03.884Z,30.74
2023-07-11T08:56:21.113Z,30.77
2023-07-11T08:57:25.037Z,30.77
2023-07-11T08:58:35.194Z,30.77
2023-07-11T08:59:59.871Z,30.79
2023-07-11T09:01:04.611Z,30.81
2023-07-11T09:02:47.597Z,30.81
2023-07-11T09:03:50.317Z,30.76
2023-07-11T09:04:54.435Z,30.80
2023-07-11T09:06:02.832Z,30.84
2023-07-11T09:07:10.922Z,30.87
2023-07-11T09:08:20.884Z,30.88
2023-07-11T09:09:24.099Z,30.89
2023-07-11T09:10:49.101Z,30.91
2023-07-11T09:12:25.428Z,30.94
2023-07-11T09:14:09.650Z,30.98
2023-07-11T09:15:44.100Z,31.03
2023-07-11T09:17:05.748Z,31.05
2023-07-11T09:18:21.725Z,31.07
2023-07-11T09:19:45.879Z,31.10
2023-07-11T09:21:02.264Z,31.14
2023-07-11T09:22:04.921Z,31.17
2023-07-11T09:23:38.932Z,31.18
2023-07-11T09:25:10.828Z,31.23
2023-07-11T09:26:26.274Z,31.29
2023-07-11T09:27:35.825Z,31.34
2023-07-11T09:28:40.945Z,31.35
2023-07-11T09:29:46.802Z,31.36
2023-07-11T09:31:00.741Z,31.38
2023-07-11T09:32:05.579Z,31.39
2023-07-11T09:33:16.012Z,31.39
2023-07-11T09:34:25.785Z,31.39
2023-07-11T09:35:31.629Z,31.40
2023-07-11T09:36:35.284Z,31.41
2023-07-11T09:37:44.073Z,31.41
2023-07-11T09:38:55.558Z,31.40
2023-07-11T09:40:14.112Z,31.41
2023-07-11T09:41:21.036Z,31.44
2023-07-11T09:42:34.504Z,31.47
2023-07-11T09:43:37.071Z,31.49
2023-07-11T09:44:39.688Z,31.51
2023-07-11T09:45:44.234Z,31.54
2023-07-11T09:46:47.543Z,31.57
2023-07-11T09:48:29.182Z,31.59
2023-07-11T09:49:32.336Z,31.60
2023-07-11T09:51:06.929Z,31.60
2023-07-11T09:52:27.521Z,31.60
2023-07-11T09:53:31.988Z,31.61
2023-07-11T09:54:59.329Z,31.61
2023-07-11T09:56:14.320Z,31.65
2023-07-11T09:57:17.737Z,31.69
2023-07-11T09:58:20.355Z,31.72
2023-07-11T09:59:23.257Z,31.76
2023-07-11T10:00:25.852Z,31.77
2023-07-11T10:01:33.420Z,31.77
2023-07-11T10:02:36.137Z,31.80
2023-07-11T10:03:38.735Z,31.84
2023-07-11T10:04:45.035Z,31.86
2023-07-11T10:05:50.832Z,31.88
2023-07-11T10:07:05.182Z,31.89
2023-07-11T10:08:20.671Z,31.89
2023-07-11T10:09:35.121Z,31.86
2023-07-11T10:10:37.702Z,31.84
2023-07-11T10:11:40.336Z,31.83
2023-07-11T10:12:44.361Z,31.85
2023-07-11T10:13:47.039Z,31.86
2023-07-11T10:15:01.307Z,31.87
2023-07-11T10:16:06.420Z,31.88
2023-07-11T10:17:21.028Z,31.88
2023-07-11T10:18:26.609Z,31.87
2023-07-11T10:19:29.460Z,31.88
2023-07-11T10:20:32.378Z,31.87
2023-07-11T10:21:40.751Z,31.85
2023-07-11T10:22:45.456Z,31.85
2023-07-11T10:23:50.078Z,31.87
2023-07-11T10:24:52.993Z,31.87
2023-07-11T10:26:07.149Z,31.88
2023-07-11T10:27:23.831Z,31.89
2023-07-11T10:28:46.009Z,31.91
2023-07-11T10:29:53.305Z,31.93
2023-07-11T10:30:59.019Z,31.94
2023-07-11T10:32:07.429Z,31.95
2023-07-11T10:33:24.884Z,31.96
2023-07-11T10:34:45.636Z,31.96
2023-07-11T10:36:04.179Z,31.98
2023-07-11T10:37:14.192Z,31.98
2023-07-11T10:38:25.017Z,31.97
2023-07-11T10:39:51.721Z,31.98
2023-07-11T10:40:59.641Z,32.00
2023-07-11T10:42:11.205Z,31.98
2023-07-11T10:43:30.247Z,31.98
2023-07-11T10:44:41.758Z,31.99
2023-07-11T10:45:48.356Z,32.00
2023-07-11T10:46:53.227Z,32.01
2023-07-11T10:48:05.646Z,32.02
2023-07-11T10:49:16.147Z,32.01
2023-07-11T10:50:27.629Z,32.00
2023-07-11T10:51:45.489Z,32.01
2023-07-11T10:52:52.044Z,32.01
2023-07-11T10:54:05.174Z,32.02
2023-07-11T10:55:18.522Z,32.03
2023-07-11T10:56:25.164Z,32.03
2023-07-11T10:57:44.144Z,32.04
2023-07-11T10:58:48.572Z,32.06
2023-07-11T10:59:51.179Z,32.08
2023-07-11T11:01:09.168Z,32.10
2023-07-11T11:02:20.611Z,32.12
2023-07-11T11:03:44.610Z,32.13
2023-07-11T11:04:56.809Z,32.14
2023-07-11T11:06:25.880Z,32.16
2023-07-11T11:07:39.684Z,32.19
2023-07-11T11:09:08.430Z,32.23
2023-07-11T11:10:35.499Z,32.25
2023-07-11T11:12:00.340Z,32.28
2023-07-11T11:13:16.279Z,32.31
2023-07-11T11:14:26.754Z,32.34
2023-07-11T11:15:47.846Z,32.39
2023-07-11T11:17:07.027Z,32.42
2023-07-11T11:18:31.672Z,32.45
2023-07-11T11:19:37.048Z,32.47
2023-07-11T11:21:06.188Z,32.49
2023-07-11T11:22:39.159Z,32.54
2023-07-11T11:24:07.550Z,32.57
2023-07-11T11:25:20.325Z,32.57
2023-07-11T11:26:24.014Z,32.56
2023-07-11T11:27:38.734Z,32.56
2023-07-11T11:28:53.199Z,32.58
2023-07-11T11:30:18.776Z,32.58
2023-07-11T11:31:30.154Z,32.62
2023-07-11T11:32:54.238Z,32.64
2023-07-11T11:34:32.630Z,32.65
2023-07-11T11:35:41.304Z,32.72
2023-07-11T11:37:04.201Z,32.78
2023-07-11T11:38:54.879Z,32.85
2023-07-11T11:40:12.765Z,32.90
2023-07-11T11:41:19.830Z,32.90
2023-07-11T11:42:26.354Z,32.90
2023-07-11T11:43:32.757Z,32.90
2023-07-11T11:47:02.575Z,32.89
2023-07-11T11:49:39.651Z,32.92
2023-07-11T11:51:50.443Z,32.90
2023-07-11T11:53:17.043Z,32.93
2023-07-11T11:54:25.411Z,32.95
2023-07-11T11:55:39.155Z,32.97
2023-07-11T11:56:46.914Z,32.95
2023-07-11T11:57:49.754Z,32.93
2023-07-11T11:59:01.983Z,32.92
2023-07-11T12:01:42.590Z,32.89
2023-07-11T12:02:49.881Z,32.90
2023-07-11T12:03:52.732Z,32.89
2023-07-11T12:04:58.349Z,32.90
2023-07-11T12:06:32.229Z,32.92
2023-07-11T12:07:40.918Z,32.95
2023-07-11T12:08:45.255Z,32.96
2023-07-11T12:09:52.323Z,32.98
2023-07-11T12:11:09.995Z,33.00
2023-07-11T12:12:14.401Z,33.02
2023-07-11T12:13:31.279Z,33.02
2023-07-11T12:14:37.941Z,33.03
2023-07-11T12:15:40.591Z,33.04
2023-07-11T12:16:48.934Z,33.06
2023-07-11T12:17:51.671Z,33.08
2023-07-11T12:18:58.204Z,33.10
2023-07-11T12:20:08.610Z,33.12
2023-07-11T12:21:17.454Z,33.12
2023-07-11T12:22:20.054Z,33.10
2023-07-11T12:23:55.399Z,33.09
2023-07-11T12:25:04.390Z,33.10
2023-07-11T12:26:17.286Z,33.10
2023-07-11T12:27:20.006Z,33.10
2023-07-11T12:28:24.980Z,33.10
2023-07-11T12:29:51.571Z,33.09
2023-07-11T12:31:24.102Z,33.11
2023-07-11T12:32:50.679Z,33.13
2023-07-11T12:34:04.783Z,33.13
2023-07-11T12:35:07.533Z,33.15
2023-07-11T12:36:25.172Z,33.16
2023-07-11T12:37:28.530Z,33.18
2023-07-11T12:38:39.637Z,33.19
2023-07-11T12:40:14.321Z,33.21
2023-07-11T12:41:44.608Z,33.24
2023-07-11T12:42:53.029Z,33.24
2023-07-11T12:43:55.960Z,33.23
2023-07-11T12:44:59.607Z,33.23
2023-07-11T12:46:15.452Z,33.23
2023-07-11T12:47:20.685Z,33.24
2023-07-11T12:48:27.754Z,33.25
2023-07-11T12:49:31.042Z,33.25
2023-07-11T12:50:53.968Z,33.24
2023-07-11T12:52:17.642Z,33.21
2023-07-11T12:53:20.423Z,33.19
2023-07-11T12:54:25.564Z,33.17
2023-07-11T12:55:29.783Z,33.16
2023-07-11T12:56:32.423Z,33.15
2023-07-11T12:57:34.996Z,33.14
2023-07-11T12:58:37.577Z,33.13
2023-07-11T12:59:40.476Z,33.13
2023-07-11T13:00:43.696Z,33.13
2023-07-11T13:01:46.335Z,33.13
2023-07-11T13:02:52.130Z,33.12
2023-07-11T13:03:54.836Z,33.09
2023-07-11T13:04:59.930Z,33.06
2023-07-11T13:06:21.084Z,33.04
2023-07-11T13:07:28.942Z,33.03
2023-07-11T13:08:37.856Z,33.04
2023-07-11T13:09:59.534Z,33.04
2023-07-11T13:11:05.103Z,33.05
2023-07-11T13:12:13.329Z,33.02
2023-07-11T13:13:15.903Z,33.01
2023-07-11T13:14:18.850Z,33.01
2023-07-11T13:15:24.945Z,33.01
2023-07-11T13:16:39.295Z,33.00
2023-07-11T13:17:43.781Z,33.00
2023-07-11T13:18:49.691Z,33.01
2023-07-11T13:20:00.611Z,33.01
2023-07-11T13:21:05.696Z,33.01
2023-07-11T13:22:17.526Z,33.01
2023-07-11T13:23:20.312Z,33.02
2023-07-11T13:24:29.729Z,33.02
2023-07-11T13:25:37.281Z,33.03
2023-07-11T13:26:39.992Z,33.03
2023-07-11T13:27:47.386Z,33.04
2023-07-11T13:29:20.247Z,33.05
2023-07-11T13:30:26.890Z,33.05
2023-07-11T13:31:32.583Z,33.04
2023-07-11T13:32:39.887Z,33.05
2023-07-11T13:33:44.706Z,33.06
2023-07-11T13:34:49.916Z,33.06
2023-07-11T13:36:07.372Z,33.06
2023-07-11T13:37:10.765Z,33.07
2023-07-11T13:38:14.254Z,33.08
2023-07-11T13:39:26.775Z,33.09
2023-07-11T13:40:39.021Z,33.11
2023-07-11T13:41:46.858Z,33.10
2023-07-11T13:42:49.483Z,33.09
2023-07-11T13:43:57.915Z,33.08
2023-07-11T13:45:12.972Z,33.06
2023-07-11T13:46:17.562Z,33.07
2023-07-11T13:47:41.963Z,33.08
2023-07-11T13:48:49.468Z,33.09
2023-07-11T13:50:11.772Z,33.11
2023-07-11T13:51:23.638Z,33.13
2023-07-11T13:52:40.835Z,33.15
2023-07-11T13:53:50.735Z,33.16
2023-07-11T13:54:56.094Z,33.18
2023-07-11T13:55:58.761Z,33.19
2023-07-11T13:57:01.928Z,33.16
2023-07-11T13:58:06.477Z,33.14
2023-07-11T13:59:09.599Z,33.14
2023-07-11T14:00:16.327Z,33.14
2023-07-11T14:01:23.416Z,33.15
2023-07-11T14:02:34.507Z,33.14
2023-07-11T14:03:37.355Z,33.13
2023-07-11T14:04:40.873Z,33.14
2023-07-11T14:05:47.525Z,33.15
2023-07-11T14:06:50.107Z,33.15
2023-07-11T14:07:54.521Z,33.15
2023-07-11T14:08:57.134Z,33.15
2023-07-11T14:09:59.750Z,33.15
2023-07-11T14:11:03.104Z,33.16
2023-07-11T14:12:06.854Z,33.15
2023-07-11T14:13:21.941Z,33.14
2023-07-11T14:14:39.263Z,33.14
2023-07-11T14:15:43.113Z,33.15
2023-07-11T14:16:46.319Z,33.15
2023-07-11T14:17:50.548Z,33.16
2023-07-11T14:18:55.572Z,33.17
2023-07-11T14:19:58.135Z,33.19
2023-07-11T14:21:00.705Z,33.21
2023-07-11T14:22:25.271Z,33.22